Liberty of The Seas — C6VQ8 — position and weather

sailwx.info

Track history (hours):
 
Tides and Currents Weather Stations Pressure Air Temp Water Temp Dewpoint Dewpoint Depression Visibility Wind Speed Wind Dir Waves Ship Positions

Liberty of The Seas

Last reported at 2014-Sep-02 23:33 UTC. Time now 2014-Sep-03 00:10 UTC.
Position N 43°52' E 008°58'.

Type: Passenger vessel. MMSI: 309436000.

Date/timePositionNaut miles runAvg speedWind from/ knotsBaromVisibWave heightAir tempDewpointWater temp
2014-Sep-02 23:33N 43°52' E 008°58'1111.3
2014-Sep-02 22:33N 43°50' E 008°42'6111.6
2014-Sep-02 17:19N 43°40' E 007°20'2 0.7
2014-Sep-02 14:24N 43°42' E 007°19'0 0.0
2014-Sep-02 13:30N 43°42' E 007°19'0 0.0
2014-Sep-02 12:30N 43°42' E 007°19'0 0.0
2014-Sep-02 11:18N 43°42' E 007°19'0 0.0
2014-Sep-02 05:30N 43°41' E 007°19'0 0.0
2014-Sep-02 04:33N 43°41' E 007°19'1010.2
2014-Sep-02 03:34N 43°32' E 007°17'1813.2
2014-Sep-02 02:13N 43°15' E 007°09'913.8
2014-Sep-02 01:33N 43°08' E 007°01'1413.7
2014-Sep-02 00:33N 42°57' E 006°49'1313.3
2014-Sep-01 23:33N 42°48' E 006°36'1312.9
2014-Sep-01 22:33N 42°45' E 006°19'1312.9
2014-Sep-01 21:33N 42°45' E 006°01'1313.2
2014-Sep-01 20:33N 42°48' E 005°44'1513.6
2014-Sep-01 19:26N 42°56' E 005°26'1914.0
2014-Sep-01 18:06N 43°13' E 005°17'712.8
2014-Sep-01 17:33N 43°20' E 005°18'2 1.4
2014-Sep-01 16:22N 43°21' E 005°20'0 0.0
2014-Sep-01 15:31N 43°21' E 005°20'0 0.0
2014-Sep-01 14:28N 43°21' E 005°20'0 0.0
2014-Sep-01 13:31N 43°21' E 005°20'0 0.0
2014-Sep-01 12:31N 43°21' E 005°20'0 0.0
2014-Sep-01 11:31N 43°21' E 005°20'0 0.0
2014-Sep-01 10:16N 43°21' E 005°20'0 0.0
2014-Sep-01 09:31N 43°21' E 005°20'0 0.0
2014-Sep-01 08:22N 43°21' E 005°20'0 0.0
2014-Sep-01 07:28N 43°21' E 005°20'0 0.3
2014-Sep-01 06:33N 43°21' E 005°19'8 7.7
2014-Sep-01 05:33N 43°16' E 005°11'10 9.7
2014-Sep-01 04:34N 43°09' E 005°03'5312.6
2014-Sep-01 00:22N 42°29' E 004°15'2512.9
2014-Aug-31 22:26N 42°10' E 003°52'1112.9
2014-Aug-31 21:33N 42°02' E 003°42'1313.1
2014-Aug-31 20:34N 41°53' E 003°30'1413.8
2014-Aug-31 19:31N 41°45' E 003°14'3014.1
2014-Aug-31 17:24N 41°30' E 002°39'23 2.3
2014-Aug-31 07:23N 41°22' E 002°11'0 0.0
2014-Aug-31 06:29N 41°22' E 002°11'0 0.0
2014-Aug-31 05:23N 41°22' E 002°11'1 0.5
2014-Aug-31 03:33N 41°21' E 002°10'10 8.1
2014-Aug-31 02:23N 41°16' E 002°21'3114.5
2014-Aug-31 00:13N 41°16' E 003°02'1215.3
2014-Aug-30 23:27N 41°16' E 003°18'1415.6
2014-Aug-30 22:33N 41°16' E 003°37'1615.9
2014-Aug-30 21:32N 41°16' E 003°59'1615.7
2014-Aug-30 20:32N 41°16' E 004°19'1915.7
2014-Aug-30 19:21N 41°16' E 004°44'3015.7
2014-Aug-30 17:27N 41°16' E 005°24'1415.6
2014-Aug-30 16:32N 41°17' E 005°43'1716.8
2014-Aug-30 15:30N 41°17' E 006°06'1716.2
2014-Aug-30 14:26N 41°17' E 006°29'3016.0
2014-Aug-30 12:33N 41°18' E 007°09'  
2014-Aug-27 18:26N 43°51' E 009°47'1415.5
2014-Aug-27 17:33N 44°04' E 009°51'3 2.7
2014-Aug-27 16:31N 44°06' E 009°50'0 0.0
2014-Aug-27 15:31N 44°06' E 009°50'0 0.0
2014-Aug-27 14:31N 44°06' E 009°50'0 0.0
2014-Aug-27 13:31N 44°06' E 009°50'0 0.0
2014-Aug-27 12:31N 44°06' E 009°50'0 0.0
2014-Aug-27 11:31N 44°06' E 009°50'0 0.0
2014-Aug-27 10:31N 44°06' E 009°50'0 0.0
2014-Aug-27 09:31N 44°06' E 009°50'0 0.0
2014-Aug-27 08:31N 44°06' E 009°50'0 0.0
2014-Aug-27 07:31N 44°06' E 009°50'0 0.0
2014-Aug-27 06:31N 44°06' E 009°50'0 0.0
2014-Aug-27 05:31N 44°06' E 009°50'0 0.4
2014-Aug-27 04:33N 44°06' E 009°50'7 6.9
2014-Aug-27 03:33N 44°01' E 009°56'9 9.0
2014-Aug-27 02:33N 43°58' E 009°44'1111.2
2014-Aug-27 01:33N 43°56' E 009°29'1212.2
2014-Aug-27 00:33N 43°54' E 009°12'1212.3
2014-Aug-26 23:33N 43°52' E 008°55'1312.3
2014-Aug-26 22:31N 43°49' E 008°38'5811.4
2014-Aug-26 17:28N 43°41' E 007°19'0 0.0
2014-Aug-26 12:04N 43°41' E 007°19'0 0.0
2014-Aug-26 11:22N 43°41' E 007°19'0 0.0
2014-Aug-26 09:10N 43°41' E 007°19'0 0.0
2014-Aug-26 08:22N 43°41' E 007°19'0 0.0
2014-Aug-26 07:22N 43°41' E 007°19'0 0.0
2014-Aug-26 06:22N 43°41' E 007°19'0 0.0
2014-Aug-26 05:28N 43°41' E 007°19'0 0.1
2014-Aug-26 04:33N 43°41' E 007°19'8 8.3
2014-Aug-26 03:33N 43°33' E 007°18'1110.8
2014-Aug-26 02:32N 43°23' E 007°14'1111.3
2014-Aug-26 01:33N 43°12' E 007°08'1212.0
2014-Aug-26 00:33N 43°03' E 006°57'1311.8
2014-Aug-25 23:28N 42°53' E 006°46'3711.3
2014-Aug-25 20:13N 42°46' E 005°57'912.1
2014-Aug-25 19:29N 42°48' E 005°45'1312.0
2014-Aug-25 18:22N 42°55' E 005°29'2312.5
2014-Aug-25 16:30N 43°16' E 005°16'6 5.8
2014-Aug-25 15:32N 43°21' E 005°20'0 0.0
2014-Aug-25 14:29N 43°21' E 005°20'0 0.0
2014-Aug-25 13:11N 43°21' E 005°20'0 0.0
2014-Aug-25 12:20N 43°21' E 005°20'0 0.0
2014-Aug-25 11:32N 43°21' E 005°20'0 0.0
2014-Aug-25 10:20N 43°21' E 005°20'0 0.0
2014-Aug-25 09:32N 43°21' E 005°20'0 0.0
2014-Aug-25 08:29N 43°21' E 005°20'0 0.0
2014-Aug-25 07:32N 43°21' E 005°20'0 0.3
2014-Aug-25 06:33N 43°21' E 005°19'9 8.9
2014-Aug-25 05:33N 43°15' E 005°10'1312.4
2014-Aug-25 04:32N 43°06' E 004°59'1412.9
2014-Aug-25 03:29N 42°56' E 004°46'2712.8
2014-Aug-25 01:23N 42°36' E 004°22'1313.1
2014-Aug-25 00:26N 42°26' E 004°11'1113.2
2014-Aug-24 23:33N 42°18' E 004°00'1413.4
2014-Aug-24 22:32N 42°07' E 003°48'1312.5
2014-Aug-24 21:31N 41°58' E 003°37'1313.0
2014-Aug-24 20:33N 41°50' E 003°24'48 2.5
2014-Aug-24 01:29N 41°16' E 002°39'1616.0
2014-Aug-24 00:28N 41°16' E 003°00'  
Track history (hours):
 
Tides and Currents Weather Stations Pressure Air Temp Water Temp Dewpoint Dewpoint Depression Visibility Wind Speed Wind Dir Waves Ship Positions

Liberty of The Seas

Last reported at 2014-Sep-02 23:33 UTC. Time now 2014-Sep-03 00:10 UTC.
Position N 43°52' E 008°58'.

Type: Passenger vessel. MMSI: 309436000.

Date/timePositionNaut miles runAvg speedWind from/ knotsBaromVisibWave heightAir tempDewpointWater temp
2014-Sep-02 23:33N 43°52' E 008°58'1111.3
2014-Sep-02 22:33N 43°50' E 008°42'6111.6
2014-Sep-02 17:19N 43°40' E 007°20'2 0.7
2014-Sep-02 14:24N 43°42' E 007°19'0 0.0
2014-Sep-02 13:30N 43°42' E 007°19'0 0.0
2014-Sep-02 12:30N 43°42' E 007°19'0 0.0
2014-Sep-02 11:18N 43°42' E 007°19'0 0.0
2014-Sep-02 05:30N 43°41' E 007°19'0 0.0
2014-Sep-02 04:33N 43°41' E 007°19'1010.2
2014-Sep-02 03:34N 43°32' E 007°17'1813.2
2014-Sep-02 02:13N 43°15' E 007°09'913.8
2014-Sep-02 01:33N 43°08' E 007°01'1413.7
2014-Sep-02 00:33N 42°57' E 006°49'1313.3
2014-Sep-01 23:33N 42°48' E 006°36'1312.9
2014-Sep-01 22:33N 42°45' E 006°19'1312.9
2014-Sep-01 21:33N 42°45' E 006°01'1313.2
2014-Sep-01 20:33N 42°48' E 005°44'1513.6
2014-Sep-01 19:26N 42°56' E 005°26'1914.0
2014-Sep-01 18:06N 43°13' E 005°17'712.8
2014-Sep-01 17:33N 43°20' E 005°18'2 1.4
2014-Sep-01 16:22N 43°21' E 005°20'0 0.0
2014-Sep-01 15:31N 43°21' E 005°20'0 0.0
2014-Sep-01 14:28N 43°21' E 005°20'0 0.0
2014-Sep-01 13:31N 43°21' E 005°20'0 0.0
2014-Sep-01 12:31N 43°21' E 005°20'0 0.0
2014-Sep-01 11:31N 43°21' E 005°20'0 0.0
2014-Sep-01 10:16N 43°21' E 005°20'0 0.0
2014-Sep-01 09:31N 43°21' E 005°20'0 0.0
2014-Sep-01 08:22N 43°21' E 005°20'0 0.0
2014-Sep-01 07:28N 43°21' E 005°20'0 0.3
2014-Sep-01 06:33N 43°21' E 005°19'8 7.7
2014-Sep-01 05:33N 43°16' E 005°11'10 9.7
2014-Sep-01 04:34N 43°09' E 005°03'5312.6
2014-Sep-01 00:22N 42°29' E 004°15'2512.9
2014-Aug-31 22:26N 42°10' E 003°52'1112.9
2014-Aug-31 21:33N 42°02' E 003°42'1313.1
2014-Aug-31 20:34N 41°53' E 003°30'1413.8
2014-Aug-31 19:31N 41°45' E 003°14'3014.1
2014-Aug-31 17:24N 41°30' E 002°39'23 2.3
2014-Aug-31 07:23N 41°22' E 002°11'0 0.0
2014-Aug-31 06:29N 41°22' E 002°11'0 0.0
2014-Aug-31 05:23N 41°22' E 002°11'1 0.5
2014-Aug-31 03:33N 41°21' E 002°10'10 8.1
2014-Aug-31 02:23N 41°16' E 002°21'3114.5
2014-Aug-31 00:13N 41°16' E 003°02'1215.3
2014-Aug-30 23:27N 41°16' E 003°18'1415.6
2014-Aug-30 22:33N 41°16' E 003°37'1615.9
2014-Aug-30 21:32N 41°16' E 003°59'1615.7
2014-Aug-30 20:32N 41°16' E 004°19'1915.7
2014-Aug-30 19:21N 41°16' E 004°44'3015.7
2014-Aug-30 17:27N 41°16' E 005°24'1415.6
2014-Aug-30 16:32N 41°17' E 005°43'1716.8
2014-Aug-30 15:30N 41°17' E 006°06'1716.2
2014-Aug-30 14:26N 41°17' E 006°29'3016.0
2014-Aug-30 12:33N 41°18' E 007°09'  
2014-Aug-27 18:26N 43°51' E 009°47'1415.5
2014-Aug-27 17:33N 44°04' E 009°51'3 2.7
2014-Aug-27 16:31N 44°06' E 009°50'0 0.0
2014-Aug-27 15:31N 44°06' E 009°50'0 0.0
2014-Aug-27 14:31N 44°06' E 009°50'0 0.0
2014-Aug-27 13:31N 44°06' E 009°50'0 0.0
2014-Aug-27 12:31N 44°06' E 009°50'0 0.0
2014-Aug-27 11:31N 44°06' E 009°50'0 0.0
2014-Aug-27 10:31N 44°06' E 009°50'0 0.0
2014-Aug-27 09:31N 44°06' E 009°50'0 0.0
2014-Aug-27 08:31N 44°06' E 009°50'0 0.0
2014-Aug-27 07:31N 44°06' E 009°50'0 0.0
2014-Aug-27 06:31N 44°06' E 009°50'0 0.0
2014-Aug-27 05:31N 44°06' E 009°50'0 0.4
2014-Aug-27 04:33N 44°06' E 009°50'7 6.9
2014-Aug-27 03:33N 44°01' E 009°56'9 9.0
2014-Aug-27 02:33N 43°58' E 009°44'1111.2
2014-Aug-27 01:33N 43°56' E 009°29'1212.2
2014-Aug-27 00:33N 43°54' E 009°12'1212.3
2014-Aug-26 23:33N 43°52' E 008°55'1312.3
2014-Aug-26 22:31N 43°49' E 008°38'5811.4
2014-Aug-26 17:28N 43°41' E 007°19'0 0.0
2014-Aug-26 12:04N 43°41' E 007°19'0 0.0
2014-Aug-26 11:22N 43°41' E 007°19'0 0.0
2014-Aug-26 09:10N 43°41' E 007°19'0 0.0
2014-Aug-26 08:22N 43°41' E 007°19'0 0.0
2014-Aug-26 07:22N 43°41' E 007°19'0 0.0
2014-Aug-26 06:22N 43°41' E 007°19'0 0.0
2014-Aug-26 05:28N 43°41' E 007°19'0 0.1
2014-Aug-26 04:33N 43°41' E 007°19'8 8.3
2014-Aug-26 03:33N 43°33' E 007°18'1110.8
2014-Aug-26 02:32N 43°23' E 007°14'1111.3
2014-Aug-26 01:33N 43°12' E 007°08'1212.0
2014-Aug-26 00:33N 43°03' E 006°57'1311.8
2014-Aug-25 23:28N 42°53' E 006°46'3711.3
2014-Aug-25 20:13N 42°46' E 005°57'912.1
2014-Aug-25 19:29N 42°48' E 005°45'1312.0
2014-Aug-25 18:22N 42°55' E 005°29'2312.5
2014-Aug-25 16:30N 43°16' E 005°16'6 5.8
2014-Aug-25 15:32N 43°21' E 005°20'0 0.0
2014-Aug-25 14:29N 43°21' E 005°20'0 0.0
2014-Aug-25 13:11N 43°21' E 005°20'0 0.0
2014-Aug-25 12:20N 43°21' E 005°20'0 0.0
2014-Aug-25 11:32N 43°21' E 005°20'0 0.0
2014-Aug-25 10:20N 43°21' E 005°20'0 0.0
2014-Aug-25 09:32N 43°21' E 005°20'0 0.0
2014-Aug-25 08:29N 43°21' E 005°20'0 0.0
2014-Aug-25 07:32N 43°21' E 005°20'0 0.3
2014-Aug-25 06:33N 43°21' E 005°19'9 8.9
2014-Aug-25 05:33N 43°15' E 005°10'1312.4
2014-Aug-25 04:32N 43°06' E 004°59'1412.9
2014-Aug-25 03:29N 42°56' E 004°46'2712.8
2014-Aug-25 01:23N 42°36' E 004°22'1313.1
2014-Aug-25 00:26N 42°26' E 004°11'1113.2
2014-Aug-24 23:33N 42°18' E 004°00'1413.4
2014-Aug-24 22:32N 42°07' E 003°48'1312.5
2014-Aug-24 21:31N 41°58' E 003°37'1313.0
2014-Aug-24 20:33N 41°50' E 003°24'48 2.5
2014-Aug-24 01:29N 41°16' E 002°39'1616.0
2014-Aug-24 00:28N 41°16' E 003°00'  

Dump ship's entire track history